Hachinohemaru — JE3089 — position and weather

sailwx.info

Track history (hours):
 
Tides and Currents Weather Stations Pressure Air Temp Water Temp Dewpoint Dewpoint Depression Visibility Wind Speed Wind Dir Waves Ship Positions

Hachinohemaru

Last reported at 2017-Dec-20 13:27 UTC. Time now 2018-Apr-26 05:59 UTC.
Position N 34°58' E 140°15'.
Warning: this ship's position is months out of date.

Length 168 m; draft 9.3 m.

Type: Cargo ship. MMSI: 431700018.

Date/timePositionNaut miles runAvg speedWind from/ knotsBaromVisibWave heightAir tempDewpointWater temp
2017-Dec-20 13:27N 34°58' E 140°15'914.1
2017-Dec-20 12:49N 34°53' E 140°06'1713.7
2017-Dec-20 11:36N 34°44' E 139°48'514.8
2017-Dec-20 11:16N 34°42' E 139°43'415.5
2017-Dec-20 10:59N 34°41' E 139°38'715.3
2017-Dec-20 10:30N 34°38' E 139°29'814.5
2017-Dec-20 09:57N 34°36' E 139°20'614.4
2017-Dec-20 09:30N 34°34' E 139°12'814.4
2017-Dec-20 08:55N 34°31' E 139°03'614.2
2017-Dec-20 08:30N 34°30' E 138°56'914.4
2017-Dec-20 07:52N 34°29' E 138°45'514.6
2017-Dec-20 07:29N 34°29' E 138°38'713.4
2017-Dec-20 06:58N 34°29' E 138°30'1013.4
2017-Dec-20 06:15N 34°28' E 138°18'413.5
2017-Dec-20 05:59N 34°27' E 138°14'  
2017-Dec-16 04:49N 33°25' E 135°25'5313.9
2017-Dec-16 01:00N 33°44' E 136°24'5814.7
2017-Dec-15 21:01N 34°18' E 137°21'314.5
2017-Dec-15 20:46N 34°20' E 137°25'514.4
2017-Dec-15 20:27N 34°23' E 137°29'1113.8
2017-Dec-15 19:41N 34°28' E 137°40'313.4
2017-Dec-15 19:29N 34°30' E 137°43'713.5
2017-Dec-15 18:59N 34°30' E 137°51'713.4
2017-Dec-15 18:29N 34°29' E 137°59'713.3
2017-Dec-15 17:57N 34°28' E 138°08'612.8
2017-Dec-15 17:30N 34°28' E 138°15'713.1
2017-Dec-15 16:57N 34°29' E 138°23'713.5
2017-Dec-15 16:28N 34°30' E 138°32'612.9
2017-Dec-15 16:00N 34°30' E 138°39'612.5
2017-Dec-15 15:30N 34°30' E 138°46'612.2
2017-Dec-15 15:00N 34°30' E 138°54'612.0
2017-Dec-15 14:30N 34°30' E 139°01'612.0
2017-Dec-15 14:00N 34°32' E 139°08'612.1
2017-Dec-15 13:30N 34°34' E 139°15'611.9
2017-Dec-15 13:00N 34°35' E 139°22'612.6
2017-Dec-15 12:30N 34°36' E 139°29'713.3
2017-Dec-15 11:59N 34°40' E 139°36'714.1
2017-Dec-15 11:30N 34°43' E 139°44'1413.4
2017-Dec-15 10:26N 34°49' E 139°60'512.7
2017-Dec-15 10:00N 34°52' E 140°06'612.4
2017-Dec-15 09:30N 34°55' E 140°12'812.7
2017-Dec-15 08:55N 34°59' E 140°19'  
Track history (hours):
 
Tides and Currents Weather Stations Pressure Air Temp Water Temp Dewpoint Dewpoint Depression Visibility Wind Speed Wind Dir Waves Ship Positions

Hachinohemaru

Last reported at 2017-Dec-20 13:27 UTC. Time now 2018-Apr-26 05:59 UTC.
Position N 34°58' E 140°15'.
Warning: this ship's position is months out of date.

Length 168 m; draft 9.3 m.

Type: Cargo ship. MMSI: 431700018.

Date/timePositionNaut miles runAvg speedWind from/ knotsBaromVisibWave heightAir tempDewpointWater temp
2017-Dec-20 13:27N 34°58' E 140°15'914.1
2017-Dec-20 12:49N 34°53' E 140°06'1713.7
2017-Dec-20 11:36N 34°44' E 139°48'514.8
2017-Dec-20 11:16N 34°42' E 139°43'415.5
2017-Dec-20 10:59N 34°41' E 139°38'715.3
2017-Dec-20 10:30N 34°38' E 139°29'814.5
2017-Dec-20 09:57N 34°36' E 139°20'614.4
2017-Dec-20 09:30N 34°34' E 139°12'814.4
2017-Dec-20 08:55N 34°31' E 139°03'614.2
2017-Dec-20 08:30N 34°30' E 138°56'914.4
2017-Dec-20 07:52N 34°29' E 138°45'514.6
2017-Dec-20 07:29N 34°29' E 138°38'713.4
2017-Dec-20 06:58N 34°29' E 138°30'1013.4
2017-Dec-20 06:15N 34°28' E 138°18'413.5
2017-Dec-20 05:59N 34°27' E 138°14'  
2017-Dec-16 04:49N 33°25' E 135°25'5313.9
2017-Dec-16 01:00N 33°44' E 136°24'5814.7
2017-Dec-15 21:01N 34°18' E 137°21'314.5
2017-Dec-15 20:46N 34°20' E 137°25'514.4
2017-Dec-15 20:27N 34°23' E 137°29'1113.8
2017-Dec-15 19:41N 34°28' E 137°40'313.4
2017-Dec-15 19:29N 34°30' E 137°43'713.5
2017-Dec-15 18:59N 34°30' E 137°51'713.4
2017-Dec-15 18:29N 34°29' E 137°59'713.3
2017-Dec-15 17:57N 34°28' E 138°08'612.8
2017-Dec-15 17:30N 34°28' E 138°15'713.1
2017-Dec-15 16:57N 34°29' E 138°23'713.5
2017-Dec-15 16:28N 34°30' E 138°32'612.9
2017-Dec-15 16:00N 34°30' E 138°39'612.5
2017-Dec-15 15:30N 34°30' E 138°46'612.2
2017-Dec-15 15:00N 34°30' E 138°54'612.0
2017-Dec-15 14:30N 34°30' E 139°01'612.0
2017-Dec-15 14:00N 34°32' E 139°08'612.1
2017-Dec-15 13:30N 34°34' E 139°15'611.9
2017-Dec-15 13:00N 34°35' E 139°22'612.6
2017-Dec-15 12:30N 34°36' E 139°29'713.3
2017-Dec-15 11:59N 34°40' E 139°36'714.1
2017-Dec-15 11:30N 34°43' E 139°44'1413.4
2017-Dec-15 10:26N 34°49' E 139°60'512.7
2017-Dec-15 10:00N 34°52' E 140°06'612.4
2017-Dec-15 09:30N 34°55' E 140°12'812.7
2017-Dec-15 08:55N 34°59' E 140°19'  

Dump ship's entire track history